sensor_id;sensor_type;location;lat;lon;timestamp;P1;durP1;ratioP1;P2;durP2;ratioP2
13267;SDS011;6702;47.068;15.458;2023-04-03T00:01:05;2.20;;;2.00;;
13267;SDS011;6702;47.068;15.458;2023-04-03T00:04:08;2.47;;;2.27;;
13267;SDS011;6702;47.068;15.458;2023-04-03T00:07:12;2.60;;;2.40;;
13267;SDS011;6702;47.068;15.458;2023-04-03T00:10:17;2.00;;;1.90;;
13267;SDS011;6702;47.068;15.458;2023-04-03T00:13:20;1.80;;;1.70;;
13267;SDS011;6702;47.068;15.458;2023-04-03T00:16:24;1.93;;;1.83;;
13267;SDS011;6702;47.068;15.458;2023-04-03T00:19:27;2.27;;;2.17;;
13267;SDS011;6702;47.068;15.458;2023-04-03T00:22:30;2.07;;;1.90;;
13267;SDS011;6702;47.068;15.458;2023-04-03T00:25:35;2.33;;;2.13;;
13267;SDS011;6702;47.068;15.458;2023-04-03T00:28:38;2.60;;;2.40;;
13267;SDS011;6702;47.068;15.458;2023-04-03T00:31:41;2.87;;;2.60;;
13267;SDS011;6702;47.068;15.458;2023-04-03T00:34:45;2.20;;;2.07;;
13267;SDS011;6702;47.068;15.458;2023-04-03T00:37:50;2.20;;;2.00;;
13267;SDS011;6702;47.068;15.458;2023-04-03T00:40:55;2.20;;;2.10;;
13267;SDS011;6702;47.068;15.458;2023-04-03T00:43:58;2.40;;;2.20;;
13267;SDS011;6702;47.068;15.458;2023-04-03T00:47:02;2.80;;;2.10;;
13267;SDS011;6702;47.068;15.458;2023-04-03T00:50:07;2.27;;;2.17;;
13267;SDS011;6702;47.068;15.458;2023-04-03T00:53:12;2.23;;;1.90;;
13267;SDS011;6702;47.068;15.458;2023-04-03T00:56:21;2.13;;;1.97;;
13267;SDS011;6702;47.068;15.458;2023-04-03T00:59:27;2.00;;;1.90;;
13267;SDS011;6702;47.068;15.458;2023-04-03T01:02:34;2.03;;;1.90;;
13267;SDS011;6702;47.068;15.458;2023-04-03T01:05:38;3.67;;;3.20;;
13267;SDS011;6702;47.068;15.458;2023-04-03T01:08:42;2.83;;;2.37;;
13267;SDS011;6702;47.068;15.458;2023-04-03T01:11:49;3.20;;;2.90;;
13267;SDS011;6702;47.068;15.458;2023-04-03T01:14:53;2.80;;;2.60;;
13267;SDS011;6702;47.068;15.458;2023-04-03T01:17:57;3.17;;;2.87;;
13267;SDS011;6702;47.068;15.458;2023-04-03T01:21:21;2.53;;;2.30;;
13267;SDS011;6702;47.068;15.458;2023-04-03T01:24:43;2.43;;;2.23;;
13267;SDS011;6702;47.068;15.458;2023-04-03T01:27:49;2.50;;;2.40;;
13267;SDS011;6702;47.068;15.458;2023-04-03T01:30:53;2.13;;;2.03;;
13267;SDS011;6702;47.068;15.458;2023-04-03T01:34:05;2.60;;;2.30;;
13267;SDS011;6702;47.068;15.458;2023-04-03T01:37:08;2.23;;;2.03;;
13267;SDS011;6702;47.068;15.458;2023-04-03T01:40:11;2.70;;;2.40;;
13267;SDS011;6702;47.068;15.458;2023-04-03T01:43:15;2.17;;;2.07;;
13267;SDS011;6702;47.068;15.458;2023-04-03T01:46:18;2.90;;;2.40;;
13267;SDS011;6702;47.068;15.458;2023-04-03T01:49:23;2.10;;;2.00;;
13267;SDS011;6702;47.068;15.458;2023-04-03T01:52:26;2.00;;;1.90;;
13267;SDS011;6702;47.068;15.458;2023-04-03T01:55:29;2.00;;;1.90;;
13267;SDS011;6702;47.068;15.458;2023-04-03T01:58:33;2.87;;;2.67;;
13267;SDS011;6702;47.068;15.458;2023-04-03T02:01:36;2.10;;;2.00;;
13267;SDS011;6702;47.068;15.458;2023-04-03T02:04:40;2.27;;;2.13;;
13267;SDS011;6702;47.068;15.458;2023-04-03T02:07:44;1.83;;;1.67;;
13267;SDS011;6702;47.068;15.458;2023-04-03T02:10:47;1.80;;;1.67;;
13267;SDS011;6702;47.068;15.458;2023-04-03T02:13:51;3.10;;;2.80;;
13267;SDS011;6702;47.068;15.458;2023-04-03T02:16:54;2.40;;;2.30;;
13267;SDS011;6702;47.068;15.458;2023-04-03T02:19:59;1.93;;;1.83;;
13267;SDS011;6702;47.068;15.458;2023-04-03T02:23:03;2.57;;;2.20;;
13267;SDS011;6702;47.068;15.458;2023-04-03T02:26:07;2.90;;;2.70;;
13267;SDS011;6702;47.068;15.458;2023-04-03T02:29:12;2.63;;;2.43;;
13267;SDS011;6702;47.068;15.458;2023-04-03T02:32:15;2.00;;;1.90;;
13267;SDS011;6702;47.068;15.458;2023-04-03T02:35:19;2.03;;;1.93;;
13267;SDS011;6702;47.068;15.458;2023-04-03T02:38:23;1.93;;;1.73;;
13267;SDS011;6702;47.068;15.458;2023-04-03T02:41:26;2.20;;;2.00;;
13267;SDS011;6702;47.068;15.458;2023-04-03T02:44:35;2.50;;;2.30;;
13267;SDS011;6702;47.068;15.458;2023-04-03T02:47:40;4.43;;;3.03;;
13267;SDS011;6702;47.068;15.458;2023-04-03T02:50:44;5.60;;;3.77;;
13267;SDS011;6702;47.068;15.458;2023-04-03T02:53:47;3.73;;;3.07;;
13267;SDS011;6702;47.068;15.458;2023-04-03T02:56:51;1.83;;;1.73;;
13267;SDS011;6702;47.068;15.458;2023-04-03T02:59:54;1.77;;;1.67;;
13267;SDS011;6702;47.068;15.458;2023-04-03T03:02:58;2.33;;;2.10;;
13267;SDS011;6702;47.068;15.458;2023-04-03T03:06:03;1.83;;;1.73;;
13267;SDS011;6702;47.068;15.458;2023-04-03T03:09:07;1.97;;;1.83;;
13267;SDS011;6702;47.068;15.458;2023-04-03T03:12:10;2.33;;;2.13;;
13267;SDS011;6702;47.068;15.458;2023-04-03T03:15:14;1.93;;;1.73;;
13267;SDS011;6702;47.068;15.458;2023-04-03T03:18:18;1.80;;;1.70;;
13267;SDS011;6702;47.068;15.458;2023-04-03T03:21:23;2.00;;;1.80;;
13267;SDS011;6702;47.068;15.458;2023-04-03T03:24:26;2.30;;;2.10;;
13267;SDS011;6702;47.068;15.458;2023-04-03T03:27:29;1.90;;;1.80;;
13267;SDS011;6702;47.068;15.458;2023-04-03T03:30:32;2.20;;;1.83;;
13267;SDS011;6702;47.068;15.458;2023-04-03T03:33:36;2.40;;;2.20;;
13267;SDS011;6702;47.068;15.458;2023-04-03T03:36:40;1.67;;;1.57;;
13267;SDS011;6702;47.068;15.458;2023-04-03T03:39:43;2.30;;;2.10;;
13267;SDS011;6702;47.068;15.458;2023-04-03T03:42:47;1.70;;;1.60;;
13267;SDS011;6702;47.068;15.458;2023-04-03T03:45:50;1.80;;;1.70;;
13267;SDS011;6702;47.068;15.458;2023-04-03T03:48:54;2.10;;;2.00;;
13267;SDS011;6702;47.068;15.458;2023-04-03T03:51:58;2.63;;;1.97;;
13267;SDS011;6702;47.068;15.458;2023-04-03T03:55:02;5.27;;;2.20;;
13267;SDS011;6702;47.068;15.458;2023-04-03T03:58:05;2.10;;;1.90;;
13267;SDS011;6702;47.068;15.458;2023-04-03T04:01:09;2.40;;;2.13;;
13267;SDS011;6702;47.068;15.458;2023-04-03T04:04:12;4.93;;;2.50;;
13267;SDS011;6702;47.068;15.458;2023-04-03T04:07:17;2.90;;;2.20;;
13267;SDS011;6702;47.068;15.458;2023-04-03T04:10:20;2.50;;;2.13;;
13267;SDS011;6702;47.068;15.458;2023-04-03T04:13:23;2.80;;;2.60;;
13267;SDS011;6702;47.068;15.458;2023-04-03T04:16:26;3.53;;;3.23;;
13267;SDS011;6702;47.068;15.458;2023-04-03T04:19:30;5.77;;;5.27;;
13267;SDS011;6702;47.068;15.458;2023-04-03T04:22:35;5.30;;;4.77;;
13267;SDS011;6702;47.068;15.458;2023-04-03T04:25:39;3.70;;;2.63;;
13267;SDS011;6702;47.068;15.458;2023-04-03T04:28:42;1.93;;;1.83;;
13267;SDS011;6702;47.068;15.458;2023-04-03T04:31:45;2.90;;;2.60;;
13267;SDS011;6702;47.068;15.458;2023-04-03T04:34:48;2.30;;;2.10;;
13267;SDS011;6702;47.068;15.458;2023-04-03T04:37:53;2.03;;;1.93;;
13267;SDS011;6702;47.068;15.458;2023-04-03T04:40:56;3.67;;;1.67;;
13267;SDS011;6702;47.068;15.458;2023-04-03T04:43:59;1.80;;;1.70;;
13267;SDS011;6702;47.068;15.458;2023-04-03T04:47:02;1.60;;;1.50;;
13267;SDS011;6702;47.068;15.458;2023-04-03T04:50:06;2.20;;;2.00;;
13267;SDS011;6702;47.068;15.458;2023-04-03T04:53:11;1.90;;;1.57;;
13267;SDS011;6702;47.068;15.458;2023-04-03T04:56:14;2.20;;;1.70;;
13267;SDS011;6702;47.068;15.458;2023-04-03T04:59:17;1.67;;;1.57;;
13267;SDS011;6702;47.068;15.458;2023-04-03T05:02:22;7.27;;;2.50;;
13267;SDS011;6702;47.068;15.458;2023-04-03T05:05:25;2.07;;;1.70;;
13267;SDS011;6702;47.068;15.458;2023-04-03T05:08:30;1.90;;;1.80;;
13267;SDS011;6702;47.068;15.458;2023-04-03T05:11:34;1.93;;;1.83;;
13267;SDS011;6702;47.068;15.458;2023-04-03T05:14:37;1.53;;;1.43;;
13267;SDS011;6702;47.068;15.458;2023-04-03T05:17:40;2.10;;;1.90;;
13267;SDS011;6702;47.068;15.458;2023-04-03T05:20:43;1.50;;;1.40;;
13267;SDS011;6702;47.068;15.458;2023-04-03T05:23:48;1.93;;;1.67;;
13267;SDS011;6702;47.068;15.458;2023-04-03T05:26:51;1.97;;;1.87;;
13267;SDS011;6702;47.068;15.458;2023-04-03T05:29:55;2.53;;;1.60;;
13267;SDS011;6702;47.068;15.458;2023-04-03T05:32:59;1.90;;;1.40;;
13267;SDS011;6702;47.068;15.458;2023-04-03T05:36:03;2.37;;;1.80;;
13267;SDS011;6702;47.068;15.458;2023-04-03T05:39:09;1.60;;;1.50;;
13267;SDS011;6702;47.068;15.458;2023-04-03T05:42:12;1.10;;;1.10;;
13267;SDS011;6702;47.068;15.458;2023-04-03T05:45:16;1.80;;;1.70;;
13267;SDS011;6702;47.068;15.458;2023-04-03T05:48:19;2.27;;;2.07;;
13267;SDS011;6702;47.068;15.458;2023-04-03T05:51:23;1.83;;;1.73;;
13267;SDS011;6702;47.068;15.458;2023-04-03T05:54:30;1.40;;;1.30;;
13267;SDS011;6702;47.068;15.458;2023-04-03T05:57:33;1.50;;;1.40;;
13267;SDS011;6702;47.068;15.458;2023-04-03T06:00:37;1.70;;;1.60;;
13267;SDS011;6702;47.068;15.458;2023-04-03T06:03:40;3.00;;;1.57;;
13267;SDS011;6702;47.068;15.458;2023-04-03T06:06:44;1.60;;;1.50;;
13267;SDS011;6702;47.068;15.458;2023-04-03T06:09:50;3.47;;;1.43;;
13267;SDS011;6702;47.068;15.458;2023-04-03T06:12:53;2.93;;;1.60;;
13267;SDS011;6702;47.068;15.458;2023-04-03T06:15:56;1.40;;;1.30;;
13267;SDS011;6702;47.068;15.458;2023-04-03T06:19:00;1.40;;;1.30;;
13267;SDS011;6702;47.068;15.458;2023-04-03T06:22:03;2.37;;;1.70;;
13267;SDS011;6702;47.068;15.458;2023-04-03T06:25:08;1.73;;;1.53;;
13267;SDS011;6702;47.068;15.458;2023-04-03T06:28:12;1.37;;;1.20;;
13267;SDS011;6702;47.068;15.458;2023-04-03T06:31:15;1.40;;;1.30;;
13267;SDS011;6702;47.068;15.458;2023-04-03T06:34:18;3.37;;;1.40;;
13267;SDS011;6702;47.068;15.458;2023-04-03T06:37:22;6.73;;;1.70;;
13267;SDS011;6702;47.068;15.458;2023-04-03T06:40:28;1.40;;;1.30;;
13267;SDS011;6702;47.068;15.458;2023-04-03T06:43:32;1.70;;;1.43;;
13267;SDS011;6702;47.068;15.458;2023-04-03T06:46:35;1.37;;;1.27;;
13267;SDS011;6702;47.068;15.458;2023-04-03T06:49:39;1.57;;;1.00;;
13267;SDS011;6702;47.068;15.458;2023-04-03T06:52:42;2.23;;;1.50;;
13267;SDS011;6702;47.068;15.458;2023-04-03T06:55:47;1.20;;;1.10;;
13267;SDS011;6702;47.068;15.458;2023-04-03T06:58:51;1.70;;;1.47;;
13267;SDS011;6702;47.068;15.458;2023-04-03T07:01:55;1.90;;;1.70;;
13267;SDS011;6702;47.068;15.458;2023-04-03T07:05:00;1.93;;;1.73;;
13267;SDS011;6702;47.068;15.458;2023-04-03T07:08:04;2.43;;;1.10;;
13267;SDS011;6702;47.068;15.458;2023-04-03T07:11:09;2.90;;;1.23;;
13267;SDS011;6702;47.068;15.458;2023-04-03T07:14:13;2.37;;;1.70;;
13267;SDS011;6702;47.068;15.458;2023-04-03T07:17:16;1.63;;;1.50;;
13267;SDS011;6702;47.068;15.458;2023-04-03T07:20:19;1.40;;;1.30;;
13267;SDS011;6702;47.068;15.458;2023-04-03T07:23:22;1.23;;;1.13;;
13267;SDS011;6702;47.068;15.458;2023-04-03T07:26:27;1.50;;;1.10;;
13267;SDS011;6702;47.068;15.458;2023-04-03T07:29:31;1.87;;;1.00;;
13267;SDS011;6702;47.068;15.458;2023-04-03T07:32:34;1.83;;;1.40;;
13267;SDS011;6702;47.068;15.458;2023-04-03T07:35:38;4.53;;;1.30;;
13267;SDS011;6702;47.068;15.458;2023-04-03T07:38:41;1.40;;;1.27;;
13267;SDS011;6702;47.068;15.458;2023-04-03T07:41:46;1.73;;;0.90;;
13267;SDS011;6702;47.068;15.458;2023-04-03T07:44:49;2.10;;;1.13;;
13267;SDS011;6702;47.068;15.458;2023-04-03T07:47:52;1.40;;;1.30;;
13267;SDS011;6702;47.068;15.458;2023-04-03T07:50:58;3.43;;;1.57;;
13267;SDS011;6702;47.068;15.458;2023-04-03T07:54:03;1.30;;;1.20;;
13267;SDS011;6702;47.068;15.458;2023-04-03T07:57:07;1.57;;;1.17;;
13267;SDS011;6702;47.068;15.458;2023-04-03T08:00:11;1.33;;;1.23;;
13267;SDS011;6702;47.068;15.458;2023-04-03T08:03:15;2.80;;;1.60;;
13267;SDS011;6702;47.068;15.458;2023-04-03T08:06:20;1.13;;;1.03;;
13267;SDS011;6702;47.068;15.458;2023-04-03T08:09:38;1.40;;;1.27;;
13267;SDS011;6702;47.068;15.458;2023-04-03T08:12:45;2.10;;;1.30;;
13267;SDS011;6702;47.068;15.458;2023-04-03T08:15:48;1.43;;;1.33;;
13267;SDS011;6702;47.068;15.458;2023-04-03T08:18:52;1.63;;;1.33;;
13267;SDS011;6702;47.068;15.458;2023-04-03T08:21:55;1.23;;;1.10;;
13267;SDS011;6702;47.068;15.458;2023-04-03T08:24:59;1.20;;;1.10;;
13267;SDS011;6702;47.068;15.458;2023-04-03T08:28:04;1.33;;;1.23;;
13267;SDS011;6702;47.068;15.458;2023-04-03T08:31:09;1.27;;;1.17;;
13267;SDS011;6702;47.068;15.458;2023-04-03T08:34:15;1.33;;;1.23;;
13267;SDS011;6702;47.068;15.458;2023-04-03T08:37:18;1.90;;;1.77;;
13267;SDS011;6702;47.068;15.458;2023-04-03T08:40:22;1.30;;;1.20;;
13267;SDS011;6702;47.068;15.458;2023-04-03T08:43:30;1.00;;;0.80;;
13267;SDS011;6702;47.068;15.458;2023-04-03T08:46:42;1.30;;;1.20;;
13267;SDS011;6702;47.068;15.458;2023-04-03T08:49:55;1.40;;;1.27;;
13267;SDS011;6702;47.068;15.458;2023-04-03T08:53:01;1.07;;;1.00;;
13267;SDS011;6702;47.068;15.458;2023-04-03T08:56:08;1.17;;;0.90;;
13267;SDS011;6702;47.068;15.458;2023-04-03T08:59:14;1.20;;;1.10;;
13267;SDS011;6702;47.068;15.458;2023-04-03T09:02:25;0.80;;;0.80;;
13267;SDS011;6702;47.068;15.458;2023-04-03T09:05:34;1.27;;;1.17;;
13267;SDS011;6702;47.068;15.458;2023-04-03T09:08:46;0.87;;;0.87;;
13267;SDS011;6702;47.068;15.458;2023-04-03T09:11:54;1.80;;;0.90;;
13267;SDS011;6702;47.068;15.458;2023-04-03T09:15:05;1.27;;;1.17;;
13267;SDS011;6702;47.068;15.458;2023-04-03T09:18:15;0.80;;;0.80;;
13267;SDS011;6702;47.068;15.458;2023-04-03T09:21:23;2.93;;;1.10;;
13267;SDS011;6702;47.068;15.458;2023-04-03T09:24:34;2.20;;;1.03;;
13267;SDS011;6702;47.068;15.458;2023-04-03T09:27:39;2.93;;;1.10;;
13267;SDS011;6702;47.068;15.458;2023-04-03T09:30:44;1.30;;;1.10;;
13267;SDS011;6702;47.068;15.458;2023-04-03T09:33:47;1.73;;;1.60;;
13267;SDS011;6702;47.068;15.458;2023-04-03T09:36:53;1.67;;;1.30;;
13267;SDS011;6702;47.068;15.458;2023-04-03T09:39:58;1.70;;;1.40;;
13267;SDS011;6702;47.068;15.458;2023-04-03T09:43:02;1.07;;;0.97;;
13267;SDS011;6702;47.068;15.458;2023-04-03T09:46:28;1.30;;;1.20;;
13267;SDS011;6702;47.068;15.458;2023-04-03T09:49:33;1.20;;;1.10;;
13267;SDS011;6702;47.068;15.458;2023-04-03T09:52:37;1.40;;;1.30;;
13267;SDS011;6702;47.068;15.458;2023-04-03T09:55:41;1.43;;;1.33;;
13267;SDS011;6702;47.068;15.458;2023-04-03T09:58:46;1.20;;;1.10;;
13267;SDS011;6702;47.068;15.458;2023-04-03T10:02:00;1.93;;;1.77;;
13267;SDS011;6702;47.068;15.458;2023-04-03T10:05:23;1.50;;;1.40;;
13267;SDS011;6702;47.068;15.458;2023-04-03T10:08:34;1.70;;;1.40;;
13267;SDS011;6702;47.068;15.458;2023-04-03T10:11:37;1.23;;;1.13;;
13267;SDS011;6702;47.068;15.458;2023-04-03T10:14:59;1.20;;;0.97;;
13267;SDS011;6702;47.068;15.458;2023-04-03T10:18:05;1.63;;;1.30;;
13267;SDS011;6702;47.068;15.458;2023-04-03T10:21:33;1.57;;;1.20;;
13267;SDS011;6702;47.068;15.458;2023-04-03T10:24:45;1.53;;;1.43;;
13267;SDS011;6702;47.068;15.458;2023-04-03T10:27:55;1.10;;;1.00;;
13267;SDS011;6702;47.068;15.458;2023-04-03T10:31:03;2.20;;;1.00;;
13267;SDS011;6702;47.068;15.458;2023-04-03T10:34:18;1.00;;;0.90;;
13267;SDS011;6702;47.068;15.458;2023-04-03T10:37:29;1.30;;;0.90;;
13267;SDS011;6702;47.068;15.458;2023-04-03T10:40:39;1.43;;;1.30;;
13267;SDS011;6702;47.068;15.458;2023-04-03T10:43:52;1.40;;;1.30;;
13267;SDS011;6702;47.068;15.458;2023-04-03T10:47:02;1.33;;;1.07;;
13267;SDS011;6702;47.068;15.458;2023-04-03T10:50:19;1.40;;;1.17;;
13267;SDS011;6702;47.068;15.458;2023-04-03T10:53:30;1.37;;;1.27;;
13267;SDS011;6702;47.068;15.458;2023-04-03T10:56:39;1.53;;;0.93;;
13267;SDS011;6702;47.068;15.458;2023-04-03T10:59:45;1.50;;;1.40;;
13267;SDS011;6702;47.068;15.458;2023-04-03T11:02:53;2.20;;;1.00;;
13267;SDS011;6702;47.068;15.458;2023-04-03T11:06:01;1.87;;;1.40;;
13267;SDS011;6702;47.068;15.458;2023-04-03T11:09:10;1.90;;;1.30;;
13267;SDS011;6702;47.068;15.458;2023-04-03T11:12:21;1.23;;;0.97;;
13267;SDS011;6702;47.068;15.458;2023-04-03T11:15:29;2.70;;;1.30;;
13267;SDS011;6702;47.068;15.458;2023-04-03T11:18:35;1.47;;;1.10;;
13267;SDS011;6702;47.068;15.458;2023-04-03T11:21:44;2.90;;;1.20;;
13267;SDS011;6702;47.068;15.458;2023-04-03T11:24:57;2.60;;;1.10;;
13267;SDS011;6702;47.068;15.458;2023-04-03T11:28:06;1.13;;;1.07;;
13267;SDS011;6702;47.068;15.458;2023-04-03T11:31:25;0.97;;;0.97;;
13267;SDS011;6702;47.068;15.458;2023-04-03T11:34:52;1.20;;;0.87;;
13267;SDS011;6702;47.068;15.458;2023-04-03T11:38:01;1.73;;;1.00;;
13267;SDS011;6702;47.068;15.458;2023-04-03T11:41:08;1.20;;;1.10;;
13267;SDS011;6702;47.068;15.458;2023-04-03T11:47:45;1.10;;;1.00;;
13267;SDS011;6702;47.068;15.458;2023-04-03T11:50:50;1.20;;;1.10;;
13267;SDS011;6702;47.068;15.458;2023-04-03T11:53:55;1.30;;;1.20;;
13267;SDS011;6702;47.068;15.458;2023-04-03T11:57:49;7.80;;;1.27;;
13267;SDS011;6702;47.068;15.458;2023-04-03T12:01:08;1.73;;;1.57;;
13267;SDS011;6702;47.068;15.458;2023-04-03T12:04:13;1.57;;;1.47;;
13267;SDS011;6702;47.068;15.458;2023-04-03T12:07:19;1.93;;;1.30;;
13267;SDS011;6702;47.068;15.458;2023-04-03T12:10:23;1.67;;;1.53;;
13267;SDS011;6702;47.068;15.458;2023-04-03T12:13:34;1.30;;;1.20;;
13267;SDS011;6702;47.068;15.458;2023-04-03T12:16:42;2.23;;;1.80;;
13267;SDS011;6702;47.068;15.458;2023-04-03T12:19:47;1.57;;;1.30;;
13267;SDS011;6702;47.068;15.458;2023-04-03T12:26:25;1.60;;;1.50;;
13267;SDS011;6702;47.068;15.458;2023-04-03T12:29:49;1.83;;;1.30;;
13267;SDS011;6702;47.068;15.458;2023-04-03T12:33:02;2.37;;;1.20;;
13267;SDS011;6702;47.068;15.458;2023-04-03T12:36:22;1.23;;;1.13;;
13267;SDS011;6702;47.068;15.458;2023-04-03T12:39:44;2.77;;;1.60;;
13267;SDS011;6702;47.068;15.458;2023-04-03T12:43:02;1.43;;;1.33;;
13267;SDS011;6702;47.068;15.458;2023-04-03T12:46:21;3.67;;;1.90;;
13267;SDS011;6702;47.068;15.458;2023-04-03T12:49:30;2.20;;;1.77;;
13267;SDS011;6702;47.068;15.458;2023-04-03T12:52:39;1.73;;;1.60;;
13267;SDS011;6702;47.068;15.458;2023-04-03T12:55:46;1.60;;;1.30;;
13267;SDS011;6702;47.068;15.458;2023-04-03T12:58:50;1.77;;;1.37;;
13267;SDS011;6702;47.068;15.458;2023-04-03T13:01:58;1.77;;;1.67;;
13267;SDS011;6702;47.068;15.458;2023-04-03T13:05:05;1.30;;;1.20;;
13267;SDS011;6702;47.068;15.458;2023-04-03T13:08:11;1.60;;;1.50;;
13267;SDS011;6702;47.068;15.458;2023-04-03T13:11:17;1.50;;;1.40;;
13267;SDS011;6702;47.068;15.458;2023-04-03T13:14:24;1.47;;;1.37;;
13267;SDS011;6702;47.068;15.458;2023-04-03T13:17:31;1.70;;;1.60;;
13267;SDS011;6702;47.068;15.458;2023-04-03T13:20:35;1.63;;;1.53;;
13267;SDS011;6702;47.068;15.458;2023-04-03T13:23:40;1.67;;;1.47;;
13267;SDS011;6702;47.068;15.458;2023-04-03T13:26:47;2.17;;;1.43;;
13267;SDS011;6702;47.068;15.458;2023-04-03T13:29:50;1.17;;;1.10;;
13267;SDS011;6702;47.068;15.458;2023-04-03T13:32:59;1.40;;;1.30;;
13267;SDS011;6702;47.068;15.458;2023-04-03T13:36:04;1.73;;;1.30;;
13267;SDS011;6702;47.068;15.458;2023-04-03T13:39:20;1.37;;;1.27;;
13267;SDS011;6702;47.068;15.458;2023-04-03T13:42:26;1.60;;;1.50;;
13267;SDS011;6702;47.068;15.458;2023-04-03T13:45:32;1.43;;;1.33;;
13267;SDS011;6702;47.068;15.458;2023-04-03T13:48:39;1.30;;;1.20;;
13267;SDS011;6702;47.068;15.458;2023-04-03T13:51:45;1.50;;;1.40;;
13267;SDS011;6702;47.068;15.458;2023-04-03T13:55:03;6.40;;;1.60;;
13267;SDS011;6702;47.068;15.458;2023-04-03T13:58:25;2.00;;;1.43;;
13267;SDS011;6702;47.068;15.458;2023-04-03T14:01:34;1.30;;;1.20;;
13267;SDS011;6702;47.068;15.458;2023-04-03T14:04:49;1.60;;;1.50;;
13267;SDS011;6702;47.068;15.458;2023-04-03T14:07:57;1.20;;;1.10;;
13267;SDS011;6702;47.068;15.458;2023-04-03T14:11:01;1.67;;;1.40;;
13267;SDS011;6702;47.068;15.458;2023-04-03T14:14:06;4.20;;;1.37;;
13267;SDS011;6702;47.068;15.458;2023-04-03T14:17:16;2.30;;;1.73;;
13267;SDS011;6702;47.068;15.458;2023-04-03T14:20:27;1.60;;;1.50;;
13267;SDS011;6702;47.068;15.458;2023-04-03T14:23:30;4.20;;;1.50;;
13267;SDS011;6702;47.068;15.458;2023-04-03T14:26:34;2.10;;;1.90;;
13267;SDS011;6702;47.068;15.458;2023-04-03T14:29:37;2.07;;;1.57;;
13267;SDS011;6702;47.068;15.458;2023-04-03T14:32:40;2.10;;;1.93;;
13267;SDS011;6702;47.068;15.458;2023-04-03T14:35:45;1.43;;;1.20;;
13267;SDS011;6702;47.068;15.458;2023-04-03T14:38:49;2.53;;;1.53;;
13267;SDS011;6702;47.068;15.458;2023-04-03T14:41:53;2.10;;;1.40;;
13267;SDS011;6702;47.068;15.458;2023-04-03T14:44:57;1.40;;;1.30;;
13267;SDS011;6702;47.068;15.458;2023-04-03T14:48:01;1.60;;;1.50;;
13267;SDS011;6702;47.068;15.458;2023-04-03T14:51:08;2.97;;;1.50;;
13267;SDS011;6702;47.068;15.458;2023-04-03T14:54:14;6.40;;;2.10;;
13267;SDS011;6702;47.068;15.458;2023-04-03T14:57:19;1.60;;;1.50;;
13267;SDS011;6702;47.068;15.458;2023-04-03T15:00:25;2.03;;;1.83;;
13267;SDS011;6702;47.068;15.458;2023-04-03T15:03:28;1.63;;;1.53;;
13267;SDS011;6702;47.068;15.458;2023-04-03T15:06:33;1.73;;;1.63;;
13267;SDS011;6702;47.068;15.458;2023-04-03T15:09:37;6.33;;;3.17;;
13267;SDS011;6702;47.068;15.458;2023-04-03T15:12:40;2.13;;;1.93;;
13267;SDS011;6702;47.068;15.458;2023-04-03T15:15:43;1.70;;;1.57;;
13267;SDS011;6702;47.068;15.458;2023-04-03T15:18:47;2.00;;;1.80;;
13267;SDS011;6702;47.068;15.458;2023-04-03T15:21:52;2.23;;;2.03;;
13267;SDS011;6702;47.068;15.458;2023-04-03T15:24:55;1.70;;;1.60;;
13267;SDS011;6702;47.068;15.458;2023-04-03T15:27:58;2.27;;;1.77;;
13267;SDS011;6702;47.068;15.458;2023-04-03T15:31:02;5.30;;;2.23;;
13267;SDS011;6702;47.068;15.458;2023-04-03T15:34:06;2.30;;;2.10;;
13267;SDS011;6702;47.068;15.458;2023-04-03T15:37:11;2.13;;;1.90;;
13267;SDS011;6702;47.068;15.458;2023-04-03T15:40:14;2.43;;;2.23;;
13267;SDS011;6702;47.068;15.458;2023-04-03T15:43:17;1.97;;;1.77;;
13267;SDS011;6702;47.068;15.458;2023-04-03T15:46:21;2.37;;;2.17;;
13267;SDS011;6702;47.068;15.458;2023-04-03T15:49:24;2.60;;;2.40;;
13267;SDS011;6702;47.068;15.458;2023-04-03T15:52:29;2.33;;;2.13;;
13267;SDS011;6702;47.068;15.458;2023-04-03T15:55:33;2.47;;;2.30;;
13267;SDS011;6702;47.068;15.458;2023-04-03T15:58:39;2.10;;;1.53;;
13267;SDS011;6702;47.068;15.458;2023-04-03T16:01:42;2.27;;;2.10;;
13267;SDS011;6702;47.068;15.458;2023-04-03T16:04:46;2.80;;;2.57;;
13267;SDS011;6702;47.068;15.458;2023-04-03T16:07:51;2.40;;;2.20;;
13267;SDS011;6702;47.068;15.458;2023-04-03T16:10:55;2.40;;;2.20;;
13267;SDS011;6702;47.068;15.458;2023-04-03T16:13:58;2.73;;;2.13;;
13267;SDS011;6702;47.068;15.458;2023-04-03T16:17:01;5.23;;;2.40;;
13267;SDS011;6702;47.068;15.458;2023-04-03T16:20:05;1.80;;;1.70;;
13267;SDS011;6702;47.068;15.458;2023-04-03T16:23:12;2.53;;;2.40;;
13267;SDS011;6702;47.068;15.458;2023-04-03T16:26:15;2.07;;;1.80;;
13267;SDS011;6702;47.068;15.458;2023-04-03T16:29:19;2.07;;;1.80;;
13267;SDS011;6702;47.068;15.458;2023-04-03T16:32:23;2.53;;;1.97;;
13267;SDS011;6702;47.068;15.458;2023-04-03T16:35:28;2.00;;;1.90;;
13267;SDS011;6702;47.068;15.458;2023-04-03T16:38:33;2.70;;;2.00;;
13267;SDS011;6702;47.068;15.458;2023-04-03T16:41:37;2.20;;;2.10;;
13267;SDS011;6702;47.068;15.458;2023-04-03T16:44:41;2.37;;;2.17;;
13267;SDS011;6702;47.068;15.458;2023-04-03T16:47:44;2.70;;;2.50;;
13267;SDS011;6702;47.068;15.458;2023-04-03T16:50:48;2.93;;;2.20;;
13267;SDS011;6702;47.068;15.458;2023-04-03T16:53:56;2.50;;;2.20;;
13267;SDS011;6702;47.068;15.458;2023-04-03T16:56:59;2.20;;;2.10;;
13267;SDS011;6702;47.068;15.458;2023-04-03T17:00:03;2.43;;;2.23;;
13267;SDS011;6702;47.068;15.458;2023-04-03T17:03:11;2.43;;;2.23;;
13267;SDS011;6702;47.068;15.458;2023-04-03T17:06:15;1.90;;;1.77;;
13267;SDS011;6702;47.068;15.458;2023-04-03T17:09:22;3.10;;;2.10;;
13267;SDS011;6702;47.068;15.458;2023-04-03T17:12:26;2.60;;;2.40;;
13267;SDS011;6702;47.068;15.458;2023-04-03T17:15:30;3.33;;;2.40;;
13267;SDS011;6702;47.068;15.458;2023-04-03T17:18:33;2.83;;;2.63;;
13267;SDS011;6702;47.068;15.458;2023-04-03T17:21:38;2.77;;;2.57;;
13267;SDS011;6702;47.068;15.458;2023-04-03T17:24:43;3.10;;;2.50;;
13267;SDS011;6702;47.068;15.458;2023-04-03T17:27:47;3.20;;;2.90;;
13267;SDS011;6702;47.068;15.458;2023-04-03T17:30:52;2.50;;;2.30;;
13267;SDS011;6702;47.068;15.458;2023-04-03T17:33:55;2.70;;;2.50;;
13267;SDS011;6702;47.068;15.458;2023-04-03T17:37:02;2.60;;;2.40;;
13267;SDS011;6702;47.068;15.458;2023-04-03T17:40:08;2.90;;;2.70;;
13267;SDS011;6702;47.068;15.458;2023-04-03T17:43:15;2.83;;;2.53;;
13267;SDS011;6702;47.068;15.458;2023-04-03T17:46:18;3.97;;;2.80;;
13267;SDS011;6702;47.068;15.458;2023-04-03T17:49:22;2.73;;;2.53;;
13267;SDS011;6702;47.068;15.458;2023-04-03T17:52:26;3.13;;;2.83;;
13267;SDS011;6702;47.068;15.458;2023-04-03T17:55:33;3.20;;;2.90;;
13267;SDS011;6702;47.068;15.458;2023-04-03T17:58:39;3.13;;;2.83;;
13267;SDS011;6702;47.068;15.458;2023-04-03T18:01:43;2.50;;;2.30;;
13267;SDS011;6702;47.068;15.458;2023-04-03T18:04:51;2.80;;;2.60;;
13267;SDS011;6702;47.068;15.458;2023-04-03T18:07:55;3.10;;;2.80;;
13267;SDS011;6702;47.068;15.458;2023-04-03T18:11:05;5.40;;;3.17;;
13267;SDS011;6702;47.068;15.458;2023-04-03T18:14:11;3.13;;;2.83;;
13267;SDS011;6702;47.068;15.458;2023-04-03T18:17:18;2.53;;;2.10;;
13267;SDS011;6702;47.068;15.458;2023-04-03T18:20:22;2.70;;;2.50;;
13267;SDS011;6702;47.068;15.458;2023-04-03T18:23:27;3.53;;;2.50;;
13267;SDS011;6702;47.068;15.458;2023-04-03T18:26:37;2.87;;;2.63;;
13267;SDS011;6702;47.068;15.458;2023-04-03T18:29:45;2.60;;;2.40;;
13267;SDS011;6702;47.068;15.458;2023-04-03T18:32:53;2.80;;;2.30;;
13267;SDS011;6702;47.068;15.458;2023-04-03T18:35:58;3.10;;;2.80;;
13267;SDS011;6702;47.068;15.458;2023-04-03T18:39:03;3.33;;;2.20;;
13267;SDS011;6702;47.068;15.458;2023-04-03T18:42:10;2.73;;;2.50;;
13267;SDS011;6702;47.068;15.458;2023-04-03T18:45:18;2.90;;;2.70;;
13267;SDS011;6702;47.068;15.458;2023-04-03T18:48:26;2.80;;;2.57;;